Terminal Aerodrome Forecast
Issued by NWS Twin Cities, MN

Home | Current Version | Previous Version | Graphics & Text | Print | Product List | Glossary On
Versions: 1 2 3 4 5 6 7 8 9 10 11 12 13 14 15 16 17 18 19 20 21 22 23 24 25 26
000
FTUS43 KMPX 231400 AAA
TAFMSP
TAF AMD
KMSP 231441Z 2315/2418 14013G19KT P6SM SCT050 OVC080
     FM231630 13014G24KT 6SM -RA FEW025 OVC050
     FM232200 13015G18KT 6SM -RA BR SCT020 OVC035
     FM240200 12012G21KT 4SM -RA BR BKN020 OVC040
     FM240800 11012G21KT 4SM -RA BR BKN008 OVC015
      TEMPO 2408/2412 2SM RA BR OVC008=

USA.gov is the U.S. government's official web portal to all federal, state and local government web resources and services.